createdAt,value
2019-02-20T00:00:01.125Z,6.22
2019-02-20T00:02:31.101Z,5.08
2019-02-20T00:05:02.924Z,5.15
2019-02-20T00:07:33.702Z,5.22
2019-02-20T00:10:03.881Z,5.70
2019-02-20T00:12:34.889Z,5.60
2019-02-20T00:15:05.366Z,6.55
2019-02-20T00:17:35.804Z,6.70
2019-02-20T00:20:05.790Z,6.50
2019-02-20T00:22:40.182Z,8.78
2019-02-20T00:25:10.016Z,11.15
2019-02-20T00:27:40.275Z,7.72
2019-02-20T00:30:10.487Z,8.53
2019-02-20T00:32:40.945Z,8.70
2019-02-20T00:35:11.667Z,8.55
2019-02-20T00:37:41.682Z,8.83
2019-02-20T00:40:12.143Z,8.63
2019-02-20T00:42:42.311Z,9.00
2019-02-20T00:45:34.552Z,8.53
2019-02-20T00:48:19.107Z,9.55
2019-02-20T00:50:50.326Z,7.30
2019-02-20T00:53:27.619Z,8.48
2019-02-20T00:55:58.130Z,8.48
2019-02-20T00:58:28.336Z,7.92
2019-02-20T01:00:58.459Z,9.00
2019-02-20T01:03:28.425Z,8.03
2019-02-20T01:05:58.598Z,8.68
2019-02-20T01:08:28.458Z,8.68
2019-02-20T01:10:58.588Z,7.87
2019-02-20T01:13:28.885Z,8.28
2019-02-20T01:15:59.075Z,7.50
2019-02-20T01:18:29.256Z,6.37
2019-02-20T01:20:59.545Z,8.45
2019-02-20T01:23:29.776Z,7.97
2019-02-20T01:25:59.832Z,8.85
2019-02-20T01:28:29.840Z,7.62
2019-02-20T01:31:00.613Z,8.60
2019-02-20T01:33:30.927Z,8.63
2019-02-20T01:36:01.382Z,7.78
2019-02-20T01:38:31.497Z,7.87
2019-02-20T01:41:01.532Z,9.18
2019-02-20T01:43:31.693Z,7.83
2019-02-20T01:46:02.061Z,7.83
2019-02-20T01:48:32.567Z,6.50
2019-02-20T01:51:02.925Z,7.40
2019-02-20T01:53:33.521Z,7.00
2019-02-20T01:56:04.038Z,7.70
2019-02-20T01:58:34.286Z,7.12
2019-02-20T02:01:04.378Z,7.35
2019-02-20T02:03:35.069Z,7.92
2019-02-20T02:06:06.500Z,7.92
2019-02-20T02:08:36.887Z,6.55
2019-02-20T02:11:06.908Z,6.37
2019-02-20T02:13:37.029Z,6.08
2019-02-20T02:16:07.095Z,5.90
2019-02-20T02:18:37.073Z,6.97
2019-02-20T02:21:07.229Z,6.78
2019-02-20T02:23:37.524Z,7.30
2019-02-20T02:26:10.960Z,4.72
2019-02-20T02:28:39.081Z,6.70
2019-02-20T02:31:09.813Z,6.50
2019-02-20T02:33:40.089Z,5.20
2019-02-20T02:36:10.564Z,5.92
2019-02-20T02:38:40.607Z,5.90
2019-02-20T02:41:11.119Z,5.75
2019-02-20T02:43:40.929Z,5.33
2019-02-20T02:46:11.099Z,4.85
2019-02-20T02:48:41.530Z,4.90
2019-02-20T02:51:11.442Z,5.92
2019-02-20T02:53:41.412Z,6.05
2019-02-20T02:56:11.535Z,5.47
2019-02-20T02:58:41.720Z,5.55
2019-02-20T03:01:12.492Z,4.67
2019-02-20T03:03:45.744Z,5.58
2019-02-20T03:06:15.867Z,5.10
2019-02-20T03:08:46.492Z,5.45
2019-02-20T03:11:16.461Z,5.42
2019-02-20T03:13:46.599Z,4.92
2019-02-20T03:16:16.849Z,5.45
2019-02-20T03:18:47.205Z,6.28
2019-02-20T03:21:35.076Z,5.33
2019-02-20T03:24:05.430Z,6.72
2019-02-20T03:26:36.181Z,7.10
2019-02-20T03:29:06.996Z,7.12
2019-02-20T03:31:37.039Z,7.28
2019-02-20T03:34:08.911Z,7.12
2019-02-20T03:36:39.572Z,7.25
2019-02-20T03:39:09.487Z,7.40
2019-02-20T03:41:39.731Z,7.20
2019-02-20T03:44:09.731Z,8.43
2019-02-20T03:46:40.375Z,7.65
2019-02-20T03:49:10.872Z,7.62
2019-02-20T03:51:40.807Z,8.85
2019-02-20T03:54:10.848Z,7.72
2019-02-20T03:56:40.739Z,8.43
2019-02-20T03:59:11.171Z,8.58
2019-02-20T04:01:41.284Z,8.80
2019-02-20T04:04:11.511Z,8.13
2019-02-20T04:06:41.892Z,8.50
2019-02-20T04:09:14.810Z,8.85
2019-02-20T04:11:45.261Z,9.80
2019-02-20T04:14:17.002Z,9.15
2019-02-20T04:16:47.544Z,10.00
2019-02-20T04:19:17.975Z,9.73
2019-02-20T04:21:47.946Z,8.85
2019-02-20T04:24:18.085Z,10.05
2019-02-20T04:26:48.282Z,10.48
2019-02-20T04:29:18.378Z,9.23
2019-02-20T04:31:48.497Z,9.10
2019-02-20T04:34:18.277Z,9.08
2019-02-20T04:36:48.251Z,10.03
2019-02-20T04:39:18.286Z,9.75
2019-02-20T04:41:48.849Z,10.13
2019-02-20T04:44:20.478Z,7.87
2019-02-20T04:46:50.657Z,9.38
2019-02-20T04:49:20.663Z,10.08
2019-02-20T04:51:50.287Z,8.68
2019-02-20T04:54:20.168Z,9.60
2019-02-20T04:56:52.220Z,9.40
2019-02-20T04:59:21.998Z,9.48
2019-02-20T05:01:52.089Z,9.43
2019-02-20T05:04:21.844Z,8.45
2019-02-20T05:06:52.451Z,10.53
2019-02-20T05:09:22.571Z,9.35
2019-02-20T05:11:52.579Z,9.45
2019-02-20T05:14:22.836Z,8.40
2019-02-20T05:16:53.052Z,9.88
2019-02-20T05:19:23.051Z,9.15
2019-02-20T05:22:01.524Z,9.15
2019-02-20T05:24:31.325Z,11.12
2019-02-20T05:27:01.446Z,8.55
2019-02-20T05:29:32.025Z,9.60
2019-02-20T05:32:02.151Z,10.40
2019-02-20T05:34:32.162Z,9.08
2019-02-20T05:37:02.169Z,9.00
2019-02-20T05:39:32.286Z,9.25
2019-02-20T05:42:02.601Z,11.08
2019-02-20T05:44:32.799Z,8.20
2019-02-20T05:47:03.134Z,9.58
2019-02-20T05:49:33.268Z,9.48
2019-02-20T05:52:02.891Z,9.48
2019-02-20T05:54:34.981Z,8.03
2019-02-20T05:57:04.956Z,9.13
2019-02-20T05:59:34.810Z,9.05
2019-02-20T06:02:05.296Z,9.63
2019-02-20T06:04:35.058Z,8.73
2019-02-20T06:07:05.087Z,10.65
2019-02-20T06:09:35.123Z,8.90
2019-02-20T06:12:06.241Z,9.40
2019-02-20T06:14:36.481Z,9.45
2019-02-20T06:17:07.094Z,9.35
2019-02-20T06:19:37.035Z,9.70
2019-02-20T06:22:07.251Z,8.73
2019-02-20T06:24:43.820Z,10.03
2019-02-20T06:27:09.742Z,10.25
2019-02-20T06:29:40.078Z,9.20
2019-02-20T06:32:09.665Z,9.38
2019-02-20T06:34:39.362Z,8.45
2019-02-20T06:37:09.699Z,8.78
2019-02-20T06:39:39.561Z,9.83
2019-02-20T06:42:09.235Z,10.25
2019-02-20T06:44:39.444Z,11.10
2019-02-20T06:47:09.405Z,9.90
2019-02-20T06:49:39.355Z,10.15
2019-02-20T06:52:10.208Z,10.13
2019-02-20T06:54:40.075Z,11.15
2019-02-20T06:57:10.074Z,10.20
2019-02-20T06:59:39.924Z,10.08
2019-02-20T07:02:10.197Z,10.18
2019-02-20T07:04:39.884Z,9.60
2019-02-20T07:07:40.247Z,9.98
2019-02-20T07:10:50.248Z,10.23
2019-02-20T07:13:34.847Z,13.08
2019-02-20T07:16:53.355Z,9.25
2019-02-20T07:20:16.520Z,9.73
2019-02-20T07:23:20.965Z,9.75
2019-02-20T07:26:27.483Z,11.08
2019-02-20T07:29:30.963Z,9.98
2019-02-20T07:32:00.834Z,9.48
2019-02-20T07:34:30.857Z,9.48
2019-02-20T07:37:00.713Z,10.10
2019-02-20T07:39:30.735Z,9.80
2019-02-20T07:42:00.583Z,9.48
2019-02-20T07:44:30.290Z,8.75
2019-02-20T07:46:59.999Z,9.50
2019-02-20T07:49:29.874Z,10.53
2019-02-20T07:51:59.635Z,10.15
2019-02-20T07:54:29.401Z,10.25
2019-02-20T07:56:59.284Z,10.43
2019-02-20T07:59:29.355Z,11.00
2019-02-20T08:01:58.981Z,10.60
2019-02-20T08:04:28.916Z,11.12
2019-02-20T08:06:59.160Z,9.00
2019-02-20T08:09:28.810Z,10.98
2019-02-20T08:11:59.273Z,9.95
2019-02-20T08:14:28.970Z,11.10
2019-02-20T08:16:59.270Z,10.13
2019-02-20T08:19:29.209Z,12.10
2019-02-20T08:21:59.031Z,11.08
2019-02-20T08:24:29.270Z,11.25
2019-02-20T08:26:58.908Z,11.48
2019-02-20T08:29:28.867Z,10.85
2019-02-20T08:31:58.917Z,10.88
2019-02-20T08:34:29.029Z,10.30
2019-02-20T08:36:58.944Z,11.73
2019-02-20T08:39:29.030Z,10.20
2019-02-20T08:41:58.879Z,11.97
2019-02-20T08:44:28.552Z,12.65
2019-02-20T08:46:58.429Z,11.35
2019-02-20T08:49:28.128Z,10.70
2019-02-20T08:51:58.208Z,12.70
2019-02-20T08:54:28.074Z,11.88
2019-02-20T08:56:57.949Z,13.05
2019-02-20T08:59:27.615Z,13.88
2019-02-20T09:01:57.472Z,10.98
2019-02-20T09:04:27.235Z,12.65
2019-02-20T09:06:57.137Z,11.65
2019-02-20T09:09:26.608Z,13.00
2019-02-20T09:11:56.013Z,11.40
2019-02-20T09:14:25.787Z,12.40
2019-02-20T09:16:55.910Z,11.83
2019-02-20T09:19:25.787Z,11.60
2019-02-20T09:21:55.662Z,12.05
2019-02-20T09:24:25.782Z,11.70
2019-02-20T09:26:55.860Z,12.93
2019-02-20T09:29:25.424Z,11.85
2019-02-20T09:31:55.065Z,11.65
2019-02-20T09:34:25.024Z,11.75
2019-02-20T09:36:54.943Z,13.60
2019-02-20T09:39:35.402Z,11.30
2019-02-20T09:42:06.349Z,12.03
2019-02-20T09:44:39.710Z,12.88
2019-02-20T09:47:09.347Z,12.78
2019-02-20T09:49:39.227Z,11.03
2019-02-20T09:52:09.057Z,11.83
2019-02-20T09:54:38.627Z,12.75
2019-02-20T09:57:08.168Z,11.25
2019-02-20T09:59:37.905Z,13.93
2019-02-20T10:02:07.422Z,13.60
2019-02-20T10:04:37.664Z,13.93
2019-02-20T10:07:07.424Z,12.58
2019-02-20T10:09:37.182Z,13.35
2019-02-20T10:12:07.648Z,10.55
2019-02-20T10:14:37.542Z,13.95
2019-02-20T10:17:07.121Z,13.28
2019-02-20T10:19:36.703Z,14.03
2019-02-20T10:22:06.109Z,14.30
2019-02-20T10:24:36.343Z,14.25
2019-02-20T10:27:06.107Z,13.55
2019-02-20T10:29:35.607Z,14.43
2019-02-20T10:32:05.101Z,14.18
2019-02-20T10:34:34.663Z,16.15
2019-02-20T10:37:04.424Z,14.73
2019-02-20T10:39:34.063Z,13.43
2019-02-20T10:42:03.820Z,14.60
2019-02-20T10:44:33.370Z,13.32
2019-02-20T10:47:03.230Z,13.32
2019-02-20T10:49:33.003Z,13.03
2019-02-20T10:52:02.861Z,12.55
2019-02-20T10:54:32.484Z,13.62
2019-02-20T10:57:02.500Z,13.25
2019-02-20T10:59:32.003Z,11.55
2019-02-20T11:02:01.547Z,14.28
2019-02-20T11:04:31.229Z,12.78
2019-02-20T11:07:00.821Z,12.43
2019-02-20T11:09:31.852Z,13.10
2019-02-20T11:12:01.547Z,12.30
2019-02-20T11:14:30.869Z,13.18
2019-02-20T11:17:00.577Z,13.87
2019-02-20T11:19:30.491Z,13.88
2019-02-20T11:22:00.095Z,14.50
2019-02-20T11:24:29.702Z,14.83
2019-02-20T11:26:59.718Z,15.15
2019-02-20T11:29:29.116Z,14.63
2019-02-20T11:31:58.932Z,14.43
2019-02-20T11:34:28.842Z,14.33
2019-02-20T11:36:58.361Z,12.80
2019-02-20T11:39:28.051Z,11.43
2019-02-20T11:41:57.663Z,13.85
2019-02-20T11:44:27.573Z,15.40
2019-02-20T11:46:57.465Z,14.60
2019-02-20T11:49:27.399Z,13.60
2019-02-20T11:51:57.208Z,13.40
2019-02-20T11:54:27.327Z,16.48
2019-02-20T11:56:57.098Z,14.85
2019-02-20T11:59:26.736Z,13.98
2019-02-20T12:01:56.450Z,16.40
2019-02-20T12:04:26.186Z,16.80
2019-02-20T12:06:56.019Z,16.57
2019-02-20T12:09:38.069Z,14.40
2019-02-20T12:12:09.362Z,14.50
2019-02-20T12:14:39.022Z,17.02
2019-02-20T12:17:08.975Z,13.65
2019-02-20T12:19:39.423Z,15.35
2019-02-20T12:22:09.583Z,13.97
2019-02-20T12:24:39.186Z,15.88
2019-02-20T12:27:08.614Z,15.07
2019-02-20T12:29:38.297Z,15.90
2019-02-20T12:32:07.895Z,16.32
2019-02-20T12:34:37.474Z,15.28
2019-02-20T12:37:07.114Z,16.00
2019-02-20T12:39:36.516Z,16.40
2019-02-20T12:42:06.533Z,17.10
2019-02-20T12:44:36.140Z,15.27
2019-02-20T12:47:05.655Z,13.97
2019-02-20T12:49:35.453Z,14.50
2019-02-20T12:52:05.146Z,14.80
2019-02-20T12:54:34.765Z,14.20
2019-02-20T12:57:04.293Z,13.20
2019-02-20T12:59:33.875Z,13.40
2019-02-20T13:02:03.482Z,14.50
2019-02-20T13:04:33.572Z,12.53
2019-02-20T13:07:03.004Z,11.77
2019-02-20T13:09:35.577Z,10.53
2019-02-20T13:12:05.185Z,11.30
2019-02-20T13:14:34.889Z,11.17
2019-02-20T13:17:04.898Z,11.37
2019-02-20T13:19:34.409Z,11.37
2019-02-20T13:22:04.171Z,11.20
2019-02-20T13:24:34.133Z,11.70
2019-02-20T13:27:08.558Z,11.33
2019-02-20T13:29:35.378Z,11.53
2019-02-20T13:32:04.828Z,10.93
2019-02-20T13:34:34.427Z,10.10
2019-02-20T13:37:03.874Z,9.30
2019-02-20T13:39:33.616Z,8.73
2019-02-20T13:42:03.221Z,8.93
2019-02-20T13:44:33.029Z,9.30
2019-02-20T13:47:02.489Z,9.70
2019-02-20T13:49:31.937Z,9.57
2019-02-20T13:52:01.749Z,8.97
2019-02-20T13:54:31.472Z,9.77
2019-02-20T13:57:02.238Z,10.37
2019-02-20T13:59:32.103Z,9.33
2019-02-20T14:02:02.252Z,9.60
2019-02-20T14:04:32.132Z,9.77
2019-02-20T14:07:01.844Z,10.43
2019-02-20T14:09:31.770Z,8.77
2019-02-20T14:12:01.534Z,9.57
2019-02-20T14:14:31.378Z,10.20
2019-02-20T14:17:01.288Z,10.07
2019-02-20T14:19:30.813Z,9.20
2019-02-20T14:22:00.502Z,10.17
2019-02-20T14:24:30.330Z,9.90
2019-02-20T14:27:00.333Z,9.60
2019-02-20T14:29:30.329Z,9.57
2019-02-20T14:32:00.209Z,8.13
2019-02-20T14:34:29.968Z,7.73
2019-02-20T14:36:59.466Z,8.30
2019-02-20T14:39:29.183Z,9.10
2019-02-20T14:42:00.979Z,9.03
2019-02-20T14:44:30.389Z,8.30
2019-02-20T14:47:00.142Z,7.80
2019-02-20T14:49:29.848Z,8.33
2019-02-20T14:51:59.731Z,8.50
2019-02-20T14:54:29.250Z,8.10
2019-02-20T14:56:58.889Z,7.93
2019-02-20T14:59:28.324Z,8.23
2019-02-20T15:01:58.090Z,8.30
2019-02-20T15:04:27.697Z,8.30
2019-02-20T15:06:57.341Z,8.20
2019-02-20T15:09:27.118Z,8.80
2019-02-20T15:11:56.717Z,7.00
2019-02-20T15:14:26.371Z,7.40
2019-02-20T15:16:56.234Z,7.73
2019-02-20T15:19:26.127Z,7.63
2019-02-20T15:21:55.963Z,7.70
2019-02-20T15:24:25.984Z,7.40
2019-02-20T15:26:55.886Z,7.27
2019-02-20T15:29:26.062Z,7.00
2019-02-20T15:31:55.883Z,8.80
2019-02-20T15:34:27.065Z,7.90
2019-02-20T15:36:56.768Z,6.93
2019-02-20T15:39:26.788Z,8.10
2019-02-20T15:41:56.485Z,8.07
2019-02-20T15:44:26.718Z,8.50
2019-02-20T15:46:56.366Z,7.47
2019-02-20T15:49:26.038Z,8.60
2019-02-20T15:51:55.838Z,7.10
2019-02-20T15:54:25.415Z,7.73
2019-02-20T15:56:54.972Z,7.47
2019-02-20T15:59:24.655Z,7.67
2019-02-20T16:01:54.563Z,7.17
2019-02-20T16:04:24.321Z,7.47
2019-02-20T16:06:54.013Z,7.30
2019-02-20T16:09:24.973Z,6.90
2019-02-20T16:11:54.924Z,6.67
2019-02-20T16:14:24.925Z,7.40
2019-02-20T16:16:54.560Z,6.90
2019-02-20T16:19:24.371Z,6.73
2019-02-20T16:21:54.188Z,7.80
2019-02-20T16:24:23.859Z,7.50
2019-02-20T16:26:53.600Z,7.80
2019-02-20T16:29:23.207Z,6.70
2019-02-20T16:31:52.701Z,6.60
2019-02-20T16:34:22.321Z,7.53
2019-02-20T16:36:52.281Z,7.80
2019-02-20T16:39:22.159Z,7.97
2019-02-20T16:41:52.164Z,6.80
2019-02-20T16:44:22.048Z,8.07
2019-02-20T16:46:51.983Z,7.80
2019-02-20T16:49:21.687Z,7.80
2019-02-20T16:51:51.510Z,7.60
2019-02-20T16:54:21.321Z,9.37
2019-02-20T16:56:50.965Z,8.70
2019-02-20T16:59:20.719Z,8.93
2019-02-20T17:01:50.480Z,8.83
2019-02-20T17:04:20.365Z,26.83
2019-02-20T17:06:50.117Z,14.53
2019-02-20T17:09:20.738Z,18.70
2019-02-20T17:11:52.774Z,13.20
2019-02-20T17:14:23.169Z,11.57
2019-02-20T17:16:54.722Z,9.33
2019-02-20T17:19:26.392Z,8.90
2019-02-20T17:21:56.486Z,9.30
2019-02-20T17:24:26.231Z,9.57
2019-02-20T17:26:56.126Z,9.20
2019-02-20T17:29:26.362Z,7.10
2019-02-20T17:31:56.121Z,8.27
2019-02-20T17:34:26.115Z,9.60
2019-02-20T17:36:56.480Z,8.67
2019-02-20T17:39:26.599Z,8.90
2019-02-20T17:41:56.610Z,8.83
2019-02-20T17:44:26.467Z,7.47
2019-02-20T17:46:56.605Z,8.65
2019-02-20T17:49:26.306Z,8.90
2019-02-20T17:51:55.881Z,8.00
2019-02-20T17:54:25.878Z,7.90
2019-02-20T17:56:56.075Z,8.95
2019-02-20T17:59:25.942Z,9.10
2019-02-20T18:01:56.148Z,8.10
2019-02-20T18:04:26.189Z,8.88
2019-02-20T18:06:56.125Z,8.25
2019-02-20T18:09:25.805Z,8.60
2019-02-20T18:11:55.782Z,8.60
2019-02-20T18:14:25.401Z,8.58
2019-02-20T18:16:55.398Z,8.90
2019-02-20T18:19:25.655Z,8.68
2019-02-20T18:21:55.777Z,7.70
2019-02-20T18:24:26.648Z,8.28
2019-02-20T18:26:57.844Z,8.20
2019-02-20T18:29:28.186Z,11.08
2019-02-20T18:31:58.166Z,9.08
2019-02-20T18:34:28.096Z,9.53
2019-02-20T18:36:58.458Z,9.00
2019-02-20T18:39:28.831Z,9.63
2019-02-20T18:41:58.669Z,8.20
2019-02-20T18:44:28.801Z,10.50
2019-02-20T18:46:59.056Z,8.78
2019-02-20T18:49:28.893Z,9.35
2019-02-20T18:51:58.834Z,9.13
2019-02-20T18:54:28.757Z,9.90
2019-02-20T18:56:58.511Z,8.70
2019-02-20T18:59:28.278Z,10.05
2019-02-20T19:01:58.155Z,9.20
2019-02-20T19:04:28.066Z,9.38
2019-02-20T19:06:58.162Z,10.72
2019-02-20T19:09:29.725Z,9.43
2019-02-20T19:12:48.930Z,11.22
2019-02-20T19:15:44.954Z,14.68
2019-02-20T19:18:37.578Z,14.65
2019-02-20T19:21:38.624Z,13.30
2019-02-20T19:25:03.529Z,14.05
2019-02-20T19:27:53.898Z,12.95
2019-02-20T19:31:09.006Z,12.80
2019-02-20T19:34:05.731Z,12.93
2019-02-20T19:37:04.082Z,12.40
2019-02-20T19:40:09.910Z,14.13
2019-02-20T19:42:47.494Z,13.68
2019-02-20T19:46:08.023Z,13.18
2019-02-20T19:48:56.414Z,15.23
2019-02-20T19:52:03.216Z,15.05
2019-02-20T19:54:43.294Z,21.10
2019-02-20T19:58:09.704Z,26.87
2019-02-20T20:01:18.804Z,27.48
2019-02-20T20:07:58.273Z,20.65
2019-02-20T20:11:21.231Z,15.28
2019-02-20T20:14:47.886Z,15.45
2019-02-20T20:18:19.017Z,14.95
2019-02-20T20:21:16.880Z,16.32
2019-02-20T20:24:19.516Z,18.20
2019-02-20T20:27:19.306Z,15.18
2019-02-20T20:30:45.307Z,15.25
2019-02-20T20:34:03.757Z,15.43
2019-02-20T20:36:56.783Z,14.65
2019-02-20T20:40:06.297Z,14.98
2019-02-20T20:43:20.489Z,15.10
2019-02-20T20:46:31.480Z,18.45
2019-02-20T20:49:36.306Z,14.35
2019-02-20T20:52:54.847Z,14.47
2019-02-20T20:56:07.297Z,13.72
2019-02-20T20:59:04.747Z,13.58
2019-02-20T21:01:50.892Z,14.58
2019-02-20T21:05:03.632Z,15.48
2019-02-20T21:08:15.545Z,13.25
2019-02-20T21:11:21.201Z,14.43
2019-02-20T21:14:28.058Z,14.20
2019-02-20T21:17:28.415Z,15.03
2019-02-20T21:20:20.471Z,15.93
2019-02-20T21:23:35.228Z,14.13
2019-02-20T21:26:43.664Z,15.20
2019-02-20T21:29:56.836Z,14.40
2019-02-20T21:33:01.623Z,13.28
2019-02-20T21:36:10.642Z,14.90
2019-02-20T21:39:10.501Z,14.80
2019-02-20T21:42:36.468Z,13.72
2019-02-20T21:45:57.695Z,13.72
2019-02-20T21:49:10.714Z,12.82
2019-02-20T21:52:10.474Z,11.33
2019-02-20T21:55:32.607Z,12.23
2019-02-20T21:58:23.402Z,12.73
2019-02-20T22:01:08.551Z,14.25
2019-02-20T22:04:04.888Z,13.15
2019-02-20T22:07:07.264Z,12.43
2019-02-20T22:10:10.559Z,11.10
2019-02-20T22:13:20.618Z,12.60
2019-02-20T22:16:33.007Z,12.07
2019-02-20T22:19:59.586Z,10.95
2019-02-20T22:22:53.298Z,11.03
2019-02-20T22:25:44.360Z,10.50
2019-02-20T22:28:38.886Z,10.05
2019-02-20T22:31:38.946Z,12.80
2019-02-20T22:34:33.325Z,10.50
2019-02-20T22:37:28.879Z,11.80
2019-02-20T22:40:22.479Z,12.63
2019-02-20T22:43:46.618Z,11.25
2019-02-20T22:46:47.467Z,11.83
2019-02-20T22:50:07.163Z,11.10
2019-02-20T22:52:59.214Z,11.75
2019-02-20T22:56:12.182Z,10.93
2019-02-20T22:59:32.238Z,11.68
2019-02-20T23:02:28.732Z,11.65
2019-02-20T23:05:34.522Z,12.30
2019-02-20T23:08:39.449Z,12.78
2019-02-20T23:11:50.762Z,12.13
2019-02-20T23:14:45.716Z,11.85
2019-02-20T23:17:15.669Z,11.70
2019-02-20T23:19:50.826Z,11.75
2019-02-20T23:22:20.961Z,10.90
2019-02-20T23:24:51.340Z,11.60
2019-02-20T23:27:21.710Z,11.73
2019-02-20T23:29:51.899Z,12.13
2019-02-20T23:32:22.073Z,13.70
2019-02-20T23:34:52.638Z,11.28
2019-02-20T23:37:24.921Z,11.70
2019-02-20T23:39:55.021Z,11.43
2019-02-20T23:42:24.937Z,11.50
2019-02-20T23:44:55.274Z,11.78
2019-02-20T23:47:25.622Z,11.63
2019-02-20T23:49:56.632Z,12.23
2019-02-20T23:52:27.271Z,11.88
2019-02-20T23:54:57.422Z,12.25
2019-02-20T23:57:27.819Z,11.55
2019-02-20T23:59:58.144Z,12.50
